createdAt,value
2022-11-29T00:00:16.517Z,4.09
2022-11-29T00:03:18.879Z,4.11
2022-11-29T00:06:30.170Z,4.10
2022-11-29T00:09:32.464Z,4.06
2022-11-29T00:12:34.727Z,4.03
2022-11-29T00:15:37.908Z,3.85
2022-11-29T00:18:40.189Z,3.83
2022-11-29T00:21:42.470Z,3.85
2022-11-29T00:24:44.906Z,3.92
2022-11-29T00:27:47.333Z,4.01
2022-11-29T00:30:49.692Z,4.03
2022-11-29T00:33:52.604Z,4.10
2022-11-29T00:36:54.944Z,4.04
2022-11-29T00:39:57.343Z,4.00
2022-11-29T00:42:59.601Z,4.04
2022-11-29T00:46:04.313Z,3.93
2022-11-29T00:49:06.626Z,3.98
2022-11-29T00:52:08.903Z,4.09
2022-11-29T00:55:11.245Z,3.92
2022-11-29T00:58:13.655Z,3.85
2022-11-29T01:01:16.364Z,3.98
2022-11-29T01:04:18.975Z,3.90
2022-11-29T01:07:21.225Z,3.97
2022-11-29T01:10:25.561Z,3.87
2022-11-29T01:13:27.864Z,3.99
2022-11-29T01:16:33.798Z,3.94
2022-11-29T01:19:38.024Z,3.91
2022-11-29T01:22:40.369Z,3.93
2022-11-29T01:25:42.673Z,3.96
2022-11-29T01:28:50.704Z,3.92
2022-11-29T01:31:53.081Z,3.97
2022-11-29T01:34:55.372Z,3.87
2022-11-29T01:37:57.709Z,3.87
2022-11-29T01:41:06.650Z,4.03
2022-11-29T01:44:12.015Z,4.07
2022-11-29T01:47:14.319Z,4.05
2022-11-29T01:50:16.965Z,4.09
2022-11-29T01:53:20.424Z,4.04
2022-11-29T01:56:23.267Z,3.86
2022-11-29T01:59:27.523Z,3.91
2022-11-29T02:02:38.776Z,3.75
2022-11-29T02:05:43.647Z,3.86
2022-11-29T02:08:46.088Z,3.98
2022-11-29T02:12:14.536Z,4.08
2022-11-29T02:15:29.430Z,4.14
2022-11-29T02:18:47.169Z,4.13
2022-11-29T02:21:53.454Z,3.88
2022-11-29T02:25:11.027Z,4.01
2022-11-29T02:28:48.850Z,4.07
2022-11-29T02:32:09.693Z,4.17
2022-11-29T02:35:35.745Z,4.21
2022-11-29T02:38:59.726Z,4.23
2022-11-29T02:42:29.951Z,4.19
2022-11-29T02:46:00.871Z,4.11
2022-11-29T02:49:12.223Z,4.17
2022-11-29T02:52:25.454Z,4.16
2022-11-29T02:55:33.958Z,4.20
2022-11-29T02:58:39.192Z,4.15
2022-11-29T03:02:17.183Z,4.14
2022-11-29T03:05:45.096Z,4.03
2022-11-29T03:08:57.203Z,4.13
2022-11-29T03:12:19.740Z,4.20
2022-11-29T03:15:36.610Z,4.10
2022-11-29T03:18:38.865Z,4.11
2022-11-29T03:21:55.771Z,3.92
2022-11-29T03:25:22.755Z,3.97
2022-11-29T03:28:42.012Z,3.91
2022-11-29T03:32:16.729Z,3.83
2022-11-29T03:35:24.551Z,3.81
2022-11-29T03:38:57.171Z,3.66
2022-11-29T03:42:06.227Z,3.72
2022-11-29T03:45:15.677Z,3.83
2022-11-29T03:48:22.722Z,3.83
2022-11-29T03:51:56.568Z,3.99
2022-11-29T03:55:23.949Z,3.94
2022-11-29T03:58:34.980Z,4.06
2022-11-29T04:02:09.521Z,4.11
2022-11-29T04:05:33.310Z,4.12
2022-11-29T04:08:38.570Z,4.19
2022-11-29T04:12:07.337Z,3.88
2022-11-29T04:15:34.242Z,3.69
2022-11-29T04:18:51.725Z,3.83
2022-11-29T04:22:19.067Z,3.91
2022-11-29T04:25:27.229Z,4.01
2022-11-29T04:28:48.971Z,3.86
2022-11-29T04:32:20.417Z,3.92
2022-11-29T04:35:50.683Z,4.00
2022-11-29T04:39:32.478Z,3.79
2022-11-29T04:42:49.666Z,3.55
2022-11-29T04:46:21.645Z,3.50
2022-11-29T04:49:33.036Z,3.49
2022-11-29T04:52:38.493Z,3.56
2022-11-29T04:55:54.970Z,3.64
2022-11-29T04:59:05.048Z,3.72
2022-11-29T05:02:32.595Z,3.50
2022-11-29T05:05:55.023Z,3.57
2022-11-29T05:08:57.269Z,3.52
2022-11-29T05:12:17.715Z,3.54
2022-11-29T05:15:45.237Z,3.50
2022-11-29T05:19:29.175Z,3.17
2022-11-29T05:22:58.762Z,3.31
2022-11-29T05:26:13.259Z,3.31
2022-11-29T05:29:21.911Z,3.42
2022-11-29T05:32:45.563Z,3.57
2022-11-29T05:36:17.138Z,3.70
2022-11-29T05:43:02.410Z,3.99
2022-11-29T05:46:12.898Z,3.92
2022-11-29T05:49:27.090Z,4.05
2022-11-29T05:52:32.310Z,4.12
2022-11-29T05:55:48.389Z,4.09
2022-11-29T05:58:54.664Z,4.22
2022-11-29T06:02:36.077Z,4.32
2022-11-29T06:05:47.561Z,4.31
2022-11-29T06:09:00.502Z,4.31
2022-11-29T06:12:06.871Z,4.49
2022-11-29T06:15:18.253Z,4.60
2022-11-29T06:18:46.440Z,4.53
2022-11-29T06:22:11.414Z,4.63
2022-11-29T06:25:27.704Z,4.80
2022-11-29T06:28:51.286Z,4.76
2022-11-29T06:32:03.699Z,4.56
2022-11-29T06:35:24.196Z,4.60
2022-11-29T06:38:29.668Z,4.47
2022-11-29T06:41:32.323Z,4.52
2022-11-29T06:44:34.900Z,4.57
2022-11-29T06:47:50.725Z,4.65
2022-11-29T06:51:21.395Z,4.35
2022-11-29T06:54:47.204Z,4.18
2022-11-29T06:58:04.929Z,4.09
2022-11-29T07:01:29.100Z,3.99
2022-11-29T07:04:45.719Z,3.98
2022-11-29T07:07:48.963Z,4.08
2022-11-29T07:10:54.075Z,4.16
2022-11-29T07:13:56.703Z,4.05
2022-11-29T07:17:15.639Z,4.10
2022-11-29T07:20:39.944Z,4.04
2022-11-29T07:23:42.269Z,3.87
2022-11-29T07:26:59.732Z,3.79
2022-11-29T07:30:16.275Z,3.99
2022-11-29T07:33:53.945Z,3.71
2022-11-29T07:37:14.583Z,3.74
2022-11-29T07:40:37.781Z,3.53
2022-11-29T07:44:01.524Z,3.58
2022-11-29T07:47:03.889Z,3.65
2022-11-29T07:50:06.717Z,3.81
2022-11-29T07:53:16.927Z,3.92
2022-11-29T07:56:19.165Z,4.02
2022-11-29T07:59:21.547Z,4.15
2022-11-29T08:02:30.877Z,4.35
2022-11-29T08:05:33.254Z,4.32
2022-11-29T08:08:40.609Z,4.29
2022-11-29T08:11:48.973Z,4.21
2022-11-29T08:14:51.207Z,4.25
2022-11-29T08:17:53.451Z,4.35
2022-11-29T08:20:55.710Z,4.41
2022-11-29T08:23:58.008Z,4.44
2022-11-29T08:27:00.264Z,4.58
2022-11-29T08:30:03.103Z,4.50
2022-11-29T08:33:05.565Z,4.31
2022-11-29T08:36:18.996Z,4.41
2022-11-29T08:39:21.375Z,4.51
2022-11-29T08:42:23.891Z,4.46
2022-11-29T08:45:26.288Z,4.47
2022-11-29T08:48:30.892Z,4.51
2022-11-29T08:51:33.157Z,4.64
2022-11-29T08:54:35.348Z,4.46
2022-11-29T08:57:41.127Z,4.53
2022-11-29T09:00:46.543Z,4.64
2022-11-29T09:04:03.084Z,4.59
2022-11-29T09:07:05.338Z,4.43
2022-11-29T09:10:09.043Z,4.56
2022-11-29T09:13:12.263Z,4.63
2022-11-29T09:16:20.538Z,4.64
2022-11-29T09:19:23.109Z,4.65
2022-11-29T09:22:25.475Z,4.70
2022-11-29T09:25:27.876Z,4.50
2022-11-29T09:28:30.550Z,4.65
2022-11-29T09:31:33.743Z,4.63
2022-11-29T09:34:36.179Z,4.70
2022-11-29T09:37:42.479Z,4.87
2022-11-29T09:40:54.260Z,5.02
2022-11-29T09:44:27.522Z,5.12
2022-11-29T09:48:03.721Z,5.08
2022-11-29T09:51:18.381Z,4.83
2022-11-29T09:54:23.642Z,5.08
2022-11-29T09:57:27.280Z,5.14
2022-11-29T10:00:31.233Z,5.18
2022-11-29T10:03:45.249Z,5.23
2022-11-29T10:06:57.209Z,5.52
2022-11-29T10:10:03.898Z,5.52
2022-11-29T10:13:28.186Z,6.10
2022-11-29T10:16:43.536Z,7.14
2022-11-29T10:19:49.537Z,7.89
2022-11-29T10:22:56.168Z,7.47
2022-11-29T10:25:58.953Z,7.00
2022-11-29T10:29:01.547Z,6.54
2022-11-29T10:32:12.352Z,6.31
2022-11-29T10:35:16.899Z,6.12
2022-11-29T10:38:34.764Z,5.78
2022-11-29T10:41:37.103Z,5.75
2022-11-29T10:44:39.372Z,5.72
2022-11-29T10:47:41.721Z,5.80
2022-11-29T10:50:45.897Z,5.70
2022-11-29T10:53:49.183Z,5.68
2022-11-29T10:56:52.264Z,5.79
2022-11-29T11:00:11.738Z,5.90
2022-11-29T11:03:29.885Z,5.93
2022-11-29T11:06:52.805Z,5.71
2022-11-29T11:09:56.963Z,5.93
2022-11-29T11:13:19.890Z,6.86
2022-11-29T11:16:25.868Z,7.29
2022-11-29T11:19:35.326Z,7.56
2022-11-29T11:22:40.295Z,7.04
2022-11-29T11:25:42.611Z,6.67
2022-11-29T11:29:02.314Z,6.26
2022-11-29T11:32:05.729Z,6.09
2022-11-29T11:35:22.304Z,5.78
2022-11-29T11:38:24.615Z,5.73
2022-11-29T11:41:48.364Z,5.61
2022-11-29T11:44:53.438Z,5.73
2022-11-29T11:47:58.500Z,5.65
2022-11-29T11:51:01.689Z,5.64
2022-11-29T11:54:04.059Z,5.58
2022-11-29T11:57:17.149Z,5.73
2022-11-29T12:01:03.453Z,5.88
2022-11-29T12:04:33.985Z,5.86
2022-11-29T12:08:07.474Z,5.66
2022-11-29T12:11:08.105Z,5.71
2022-11-29T12:14:18.887Z,5.64
2022-11-29T12:17:49.209Z,5.80
2022-11-29T12:20:56.345Z,5.82
2022-11-29T12:24:21.692Z,5.81
2022-11-29T12:27:24.051Z,5.82
2022-11-29T12:30:26.357Z,5.74
2022-11-29T12:33:38.766Z,5.75
2022-11-29T12:37:26.030Z,5.89
2022-11-29T12:40:34.689Z,5.89
2022-11-29T12:44:04.084Z,6.03
2022-11-29T12:47:38.337Z,5.95
2022-11-29T12:51:02.167Z,6.07
2022-11-29T12:54:38.101Z,5.89
2022-11-29T12:57:54.325Z,5.73
2022-11-29T13:01:19.748Z,5.87
2022-11-29T13:04:40.812Z,5.93
2022-11-29T13:08:04.806Z,5.98
2022-11-29T13:11:31.580Z,5.95
2022-11-29T13:14:49.719Z,5.96
2022-11-29T13:17:55.082Z,6.05
2022-11-29T13:21:15.955Z,6.02
2022-11-29T13:24:26.152Z,6.01
2022-11-29T13:27:34.865Z,6.02
2022-11-29T13:30:38.755Z,6.08
2022-11-29T13:33:59.342Z,6.03
2022-11-29T13:37:07.576Z,6.02
2022-11-29T13:40:22.496Z,5.82
2022-11-29T13:43:33.860Z,5.71
2022-11-29T13:46:39.230Z,5.76
2022-11-29T13:50:04.505Z,5.65
2022-11-29T13:53:19.917Z,5.77
2022-11-29T13:56:32.797Z,5.76
2022-11-29T13:59:40.549Z,5.69
2022-11-29T14:02:48.338Z,5.40
2022-11-29T14:05:51.584Z,5.59
2022-11-29T14:12:35.894Z,5.51
2022-11-29T14:15:38.505Z,5.27
2022-11-29T14:19:10.195Z,5.22
2022-11-29T14:22:20.861Z,5.24
2022-11-29T14:25:50.669Z,5.30
2022-11-29T14:28:47.364Z,5.46
2022-11-29T14:31:52.015Z,5.62
2022-11-29T14:35:12.543Z,5.73
2022-11-29T14:38:31.162Z,5.66
2022-11-29T14:41:54.494Z,5.61
2022-11-29T14:45:04.706Z,5.38
2022-11-29T14:48:25.641Z,5.35
2022-11-29T14:51:30.768Z,5.39
2022-11-29T14:54:33.831Z,5.58
2022-11-29T14:57:48.293Z,5.49
2022-11-29T15:04:27.513Z,4.93
2022-11-29T15:07:30.857Z,4.85
2022-11-29T15:10:36.585Z,4.84
2022-11-29T15:13:45.802Z,4.77
2022-11-29T15:17:04.797Z,4.79
2022-11-29T15:20:48.474Z,4.56
2022-11-29T15:23:58.832Z,4.41
2022-11-29T15:27:02.743Z,4.40
2022-11-29T15:30:34.673Z,4.52
2022-11-29T15:33:39.807Z,4.57
2022-11-29T15:36:43.920Z,4.67
2022-11-29T15:39:46.169Z,4.63
2022-11-29T15:43:02.666Z,4.80
2022-11-29T15:46:05.107Z,4.81
2022-11-29T15:49:28.060Z,4.83
2022-11-29T15:52:33.910Z,4.74
2022-11-29T15:55:36.446Z,4.65
2022-11-29T15:58:39.024Z,4.57
2022-11-29T16:01:43.257Z,4.63
2022-11-29T16:04:47.385Z,4.64
2022-11-29T16:07:53.733Z,4.44
2022-11-29T16:10:56.295Z,4.46
2022-11-29T16:14:12.820Z,4.53
2022-11-29T16:17:15.406Z,4.49
2022-11-29T16:20:18.788Z,4.66
2022-11-29T16:23:21.107Z,4.72
2022-11-29T16:26:24.789Z,4.75
2022-11-29T16:29:30.417Z,4.66
2022-11-29T16:32:35.503Z,4.77
2022-11-29T16:35:37.848Z,4.78
2022-11-29T16:38:46.186Z,4.89
2022-11-29T16:42:26.182Z,4.92
2022-11-29T16:45:48.945Z,5.02
2022-11-29T16:48:52.776Z,4.92
2022-11-29T16:51:55.067Z,4.87
2022-11-29T16:54:57.480Z,4.84
2022-11-29T16:57:59.868Z,4.85
2022-11-29T17:01:19.689Z,4.93
2022-11-29T17:04:24.362Z,4.96
2022-11-29T17:07:30.208Z,4.94
2022-11-29T17:10:32.791Z,4.91
2022-11-29T17:13:35.027Z,4.89
2022-11-29T17:16:37.366Z,4.92
2022-11-29T17:19:39.649Z,4.94
2022-11-29T17:22:42.045Z,4.92
2022-11-29T17:25:44.440Z,4.89
2022-11-29T17:28:48.353Z,5.03
2022-11-29T17:31:50.831Z,4.96
2022-11-29T17:34:53.283Z,5.08
2022-11-29T17:37:55.584Z,5.09
2022-11-29T17:40:58.050Z,5.04
2022-11-29T17:44:00.913Z,5.10
2022-11-29T17:47:03.186Z,5.12
2022-11-29T17:50:06.104Z,5.04
2022-11-29T17:53:08.382Z,5.09
2022-11-29T17:56:12.807Z,5.04
2022-11-29T17:59:15.184Z,5.13
2022-11-29T18:02:17.563Z,4.89
2022-11-29T18:05:20.137Z,4.99
2022-11-29T18:08:22.379Z,5.21
2022-11-29T18:11:27.988Z,5.28
2022-11-29T18:14:31.113Z,5.22
2022-11-29T18:17:33.532Z,5.26
2022-11-29T18:20:35.802Z,5.31
2022-11-29T18:23:41.227Z,5.40
2022-11-29T18:26:43.893Z,5.43
2022-11-29T18:29:46.382Z,5.52
2022-11-29T18:32:48.884Z,5.51
2022-11-29T18:35:51.473Z,5.62
2022-11-29T18:39:05.035Z,5.63
2022-11-29T18:42:07.390Z,5.64
2022-11-29T18:45:10.023Z,5.54
2022-11-29T18:48:12.486Z,5.65
2022-11-29T18:51:16.930Z,5.74
2022-11-29T18:54:19.634Z,5.68
2022-11-29T18:57:21.983Z,5.71
2022-11-29T19:00:24.592Z,5.64
2022-11-29T19:03:27.220Z,5.60
2022-11-29T19:06:39.030Z,5.57
2022-11-29T19:09:42.311Z,5.63
2022-11-29T19:12:44.676Z,5.68
2022-11-29T19:15:54.240Z,5.73
2022-11-29T19:18:58.018Z,5.64
2022-11-29T19:22:00.675Z,5.52
2022-11-29T19:25:02.959Z,5.59
2022-11-29T19:28:10.694Z,5.59
2022-11-29T19:31:17.879Z,5.65
2022-11-29T19:34:20.365Z,5.59
2022-11-29T19:37:22.681Z,5.53
2022-11-29T19:40:25.109Z,5.60
2022-11-29T19:43:27.678Z,5.52
2022-11-29T19:46:41.557Z,5.62
2022-11-29T19:49:46.755Z,5.53
2022-11-29T19:52:49.434Z,5.54
2022-11-29T19:55:51.707Z,5.44
2022-11-29T19:58:54.364Z,5.33
2022-11-29T20:01:59.477Z,5.40
2022-11-29T20:05:01.939Z,5.36
2022-11-29T20:08:04.393Z,5.46
2022-11-29T20:11:18.277Z,5.36
2022-11-29T20:14:20.725Z,5.36
2022-11-29T20:17:22.981Z,5.33
2022-11-29T20:20:25.319Z,5.37
2022-11-29T20:23:27.618Z,5.34
2022-11-29T20:26:31.268Z,5.33
2022-11-29T20:29:33.824Z,5.26
2022-11-29T20:32:36.448Z,5.15
2022-11-29T20:35:39.075Z,5.11
2022-11-29T20:38:51.377Z,5.14
2022-11-29T20:41:53.621Z,5.22
2022-11-29T20:44:57.404Z,5.25
2022-11-29T20:48:11.390Z,5.25
2022-11-29T20:51:13.915Z,5.18
2022-11-29T20:54:17.303Z,5.09
2022-11-29T20:57:19.576Z,5.09
2022-11-29T21:00:22.189Z,5.06
2022-11-29T21:03:24.973Z,4.98
2022-11-29T21:06:27.279Z,4.95
2022-11-29T21:09:29.596Z,4.99
2022-11-29T21:12:32.369Z,5.06
2022-11-29T21:15:34.908Z,4.94
2022-11-29T21:18:37.737Z,5.07
2022-11-29T21:21:58.794Z,5.11
2022-11-29T21:25:22.440Z,5.05
2022-11-29T21:28:29.275Z,4.99
2022-11-29T21:31:31.928Z,5.01
2022-11-29T21:34:34.932Z,4.97
2022-11-29T21:37:37.718Z,5.06
2022-11-29T21:40:40.081Z,5.13
2022-11-29T21:44:05.469Z,5.04
2022-11-29T21:47:04.924Z,5.02
2022-11-29T21:50:07.772Z,5.08
2022-11-29T21:53:10.191Z,5.12
2022-11-29T21:56:12.996Z,5.01
2022-11-29T21:59:15.256Z,5.10
2022-11-29T22:02:17.665Z,5.17
2022-11-29T22:05:20.024Z,5.09
2022-11-29T22:08:22.283Z,5.19
2022-11-29T22:11:36.698Z,5.11
2022-11-29T22:14:40.402Z,5.29
2022-11-29T22:17:42.679Z,5.21
2022-11-29T22:20:47.311Z,5.20
2022-11-29T22:23:49.781Z,5.25
2022-11-29T22:26:52.605Z,5.28
2022-11-29T22:29:54.990Z,5.19
2022-11-29T22:32:57.311Z,5.17
2022-11-29T22:36:07.517Z,5.24
2022-11-29T22:39:09.988Z,5.20
2022-11-29T22:42:12.253Z,5.18
2022-11-29T22:45:14.572Z,5.20
2022-11-29T22:48:16.828Z,5.10
2022-11-29T22:51:20.957Z,5.21
2022-11-29T22:54:23.245Z,5.14
2022-11-29T22:57:25.486Z,5.09
2022-11-29T23:00:27.755Z,5.13
2022-11-29T23:03:33.128Z,5.07
2022-11-29T23:06:41.420Z,5.20
2022-11-29T23:09:43.738Z,5.30
2022-11-29T23:12:47.660Z,5.33
2022-11-29T23:15:50.060Z,5.19
2022-11-29T23:18:53.619Z,5.24
2022-11-29T23:21:56.572Z,5.22
2022-11-29T23:24:58.861Z,5.26
2022-11-29T23:28:01.162Z,5.20
2022-11-29T23:31:03.620Z,5.22
2022-11-29T23:34:05.943Z,5.20
2022-11-29T23:37:08.217Z,5.32
2022-11-29T23:40:10.959Z,5.23
2022-11-29T23:43:13.302Z,5.32
2022-11-29T23:46:18.200Z,5.40
2022-11-29T23:49:20.500Z,5.22
2022-11-29T23:52:22.903Z,5.29
2022-11-29T23:55:25.756Z,5.22
2022-11-29T23:58:28.967Z,5.24
